sensor_id;sensor_type;location;lat;lon;timestamp;P1;durP1;ratioP1;P2;durP2;ratioP2
48534;SDS011;34323;52.022;5.686;2023-07-20T00:01:02;11.32;;;7.25;;
48534;SDS011;34323;52.022;5.686;2023-07-20T00:03:27;11.43;;;6.85;;
48534;SDS011;34323;52.022;5.686;2023-07-20T00:05:53;12.82;;;6.65;;
48534;SDS011;34323;52.022;5.686;2023-07-20T00:08:18;9.77;;;6.57;;
48534;SDS011;34323;52.022;5.686;2023-07-20T00:10:44;9.60;;;6.65;;
48534;SDS011;34323;52.022;5.686;2023-07-20T00:13:10;10.23;;;6.53;;
48534;SDS011;34323;52.022;5.686;2023-07-20T00:15:36;9.38;;;7.07;;
48534;SDS011;34323;52.022;5.686;2023-07-20T00:18:03;9.95;;;6.80;;
48534;SDS011;34323;52.022;5.686;2023-07-20T00:20:29;9.95;;;6.43;;
48534;SDS011;34323;52.022;5.686;2023-07-20T00:22:54;8.55;;;6.07;;
48534;SDS011;34323;52.022;5.686;2023-07-20T00:25:22;11.23;;;6.20;;
48534;SDS011;34323;52.022;5.686;2023-07-20T00:27:48;7.18;;;5.75;;
48534;SDS011;34323;52.022;5.686;2023-07-20T00:30:14;7.68;;;5.28;;
48534;SDS011;34323;52.022;5.686;2023-07-20T00:32:40;10.85;;;5.60;;
48534;SDS011;34323;52.022;5.686;2023-07-20T00:35:06;11.38;;;4.90;;
48534;SDS011;34323;52.022;5.686;2023-07-20T00:37:32;11.57;;;4.60;;
48534;SDS011;34323;52.022;5.686;2023-07-20T00:39:58;7.13;;;4.93;;
48534;SDS011;34323;52.022;5.686;2023-07-20T00:42:23;8.10;;;4.22;;
48534;SDS011;34323;52.022;5.686;2023-07-20T00:44:49;7.70;;;4.60;;
48534;SDS011;34323;52.022;5.686;2023-07-20T00:47:14;9.45;;;5.28;;
48534;SDS011;34323;52.022;5.686;2023-07-20T00:49:40;15.20;;;4.22;;
48534;SDS011;34323;52.022;5.686;2023-07-20T00:52:06;8.75;;;4.40;;
48534;SDS011;34323;52.022;5.686;2023-07-20T00:54:32;5.93;;;4.18;;
48534;SDS011;34323;52.022;5.686;2023-07-20T00:56:59;10.20;;;4.85;;
48534;SDS011;34323;52.022;5.686;2023-07-20T00:59:27;5.70;;;4.45;;
48534;SDS011;34323;52.022;5.686;2023-07-20T01:01:52;7.13;;;4.38;;
48534;SDS011;34323;52.022;5.686;2023-07-20T01:04:18;7.47;;;4.65;;
48534;SDS011;34323;52.022;5.686;2023-07-20T01:09:32;5.32;;;3.85;;
48534;SDS011;34323;52.022;5.686;2023-07-20T01:12:33;7.88;;;4.55;;
48534;SDS011;34323;52.022;5.686;2023-07-20T01:15:07;6.43;;;4.32;;
48534;SDS011;34323;52.022;5.686;2023-07-20T01:17:33;8.45;;;4.50;;
48534;SDS011;34323;52.022;5.686;2023-07-20T01:19:59;5.40;;;4.10;;
48534;SDS011;34323;52.022;5.686;2023-07-20T01:22:34;7.88;;;3.85;;
48534;SDS011;34323;52.022;5.686;2023-07-20T01:33:48;4.97;;;3.63;;
48534;SDS011;34323;52.022;5.686;2023-07-20T01:36:16;6.15;;;3.10;;
48534;SDS011;34323;52.022;5.686;2023-07-20T01:38:43;5.05;;;2.97;;
48534;SDS011;34323;52.022;5.686;2023-07-20T01:41:09;4.25;;;3.13;;
48534;SDS011;34323;52.022;5.686;2023-07-20T01:43:36;6.80;;;3.10;;
48534;SDS011;34323;52.022;5.686;2023-07-20T01:46:01;3.72;;;2.53;;
48534;SDS011;34323;52.022;5.686;2023-07-20T01:48:27;6.93;;;2.75;;
48534;SDS011;34323;52.022;5.686;2023-07-20T01:50:53;4.65;;;2.60;;
48534;SDS011;34323;52.022;5.686;2023-07-20T01:53:19;3.75;;;2.55;;
48534;SDS011;34323;52.022;5.686;2023-07-20T01:55:45;5.05;;;2.80;;
48534;SDS011;34323;52.022;5.686;2023-07-20T01:58:11;3.13;;;2.55;;
48534;SDS011;34323;52.022;5.686;2023-07-20T02:00:37;5.50;;;2.85;;
48534;SDS011;34323;52.022;5.686;2023-07-20T02:03:03;5.15;;;2.72;;
48534;SDS011;34323;52.022;5.686;2023-07-20T02:05:29;3.15;;;2.63;;
48534;SDS011;34323;52.022;5.686;2023-07-20T02:07:54;3.88;;;2.97;;
48534;SDS011;34323;52.022;5.686;2023-07-20T02:10:20;3.28;;;2.30;;
48534;SDS011;34323;52.022;5.686;2023-07-20T02:12:45;4.93;;;3.00;;
48534;SDS011;34323;52.022;5.686;2023-07-20T02:15:11;4.22;;;2.38;;
48534;SDS011;34323;52.022;5.686;2023-07-20T02:17:38;2.95;;;2.55;;
48534;SDS011;34323;52.022;5.686;2023-07-20T02:20:06;3.95;;;2.47;;
48534;SDS011;34323;52.022;5.686;2023-07-20T02:22:34;4.38;;;2.78;;
48534;SDS011;34323;52.022;5.686;2023-07-20T02:24:59;3.30;;;2.47;;
48534;SDS011;34323;52.022;5.686;2023-07-20T02:27:25;5.20;;;2.72;;
48534;SDS011;34323;52.022;5.686;2023-07-20T02:29:50;3.45;;;2.55;;
48534;SDS011;34323;52.022;5.686;2023-07-20T02:32:16;4.63;;;2.50;;
48534;SDS011;34323;52.022;5.686;2023-07-20T02:34:41;4.03;;;3.05;;
48534;SDS011;34323;52.022;5.686;2023-07-20T02:37:07;3.20;;;2.78;;
48534;SDS011;34323;52.022;5.686;2023-07-20T02:39:33;3.60;;;2.47;;
48534;SDS011;34323;52.022;5.686;2023-07-20T02:41:59;4.88;;;2.65;;
48534;SDS011;34323;52.022;5.686;2023-07-20T02:44:24;3.88;;;2.40;;
48534;SDS011;34323;52.022;5.686;2023-07-20T02:46:50;4.30;;;2.50;;
48534;SDS011;34323;52.022;5.686;2023-07-20T02:49:15;3.13;;;2.53;;
48534;SDS011;34323;52.022;5.686;2023-07-20T02:51:41;4.07;;;3.03;;
48534;SDS011;34323;52.022;5.686;2023-07-20T02:54:07;3.95;;;2.60;;
48534;SDS011;34323;52.022;5.686;2023-07-20T02:56:33;2.95;;;2.45;;
48534;SDS011;34323;52.022;5.686;2023-07-20T02:58:58;3.03;;;2.00;;
48534;SDS011;34323;52.022;5.686;2023-07-20T03:01:24;3.65;;;2.15;;
48534;SDS011;34323;52.022;5.686;2023-07-20T03:03:54;5.57;;;2.10;;
48534;SDS011;34323;52.022;5.686;2023-07-20T03:06:20;3.33;;;2.63;;
48534;SDS011;34323;52.022;5.686;2023-07-20T03:08:45;3.20;;;2.30;;
48534;SDS011;34323;52.022;5.686;2023-07-20T03:11:13;5.13;;;2.92;;
48534;SDS011;34323;52.022;5.686;2023-07-20T03:13:43;4.05;;;2.58;;
48534;SDS011;34323;52.022;5.686;2023-07-20T03:16:09;3.50;;;2.58;;
48534;SDS011;34323;52.022;5.686;2023-07-20T03:18:38;4.57;;;2.95;;
48534;SDS011;34323;52.022;5.686;2023-07-20T03:21:05;5.18;;;2.80;;
48534;SDS011;34323;52.022;5.686;2023-07-20T03:23:31;4.15;;;2.83;;
48534;SDS011;34323;52.022;5.686;2023-07-20T03:25:57;3.85;;;2.65;;
48534;SDS011;34323;52.022;5.686;2023-07-20T03:28:22;3.08;;;2.60;;
48534;SDS011;34323;52.022;5.686;2023-07-20T03:30:54;4.30;;;2.83;;
48534;SDS011;34323;52.022;5.686;2023-07-20T03:33:27;3.85;;;2.90;;
48534;SDS011;34323;52.022;5.686;2023-07-20T03:35:54;3.35;;;2.63;;
48534;SDS011;34323;52.022;5.686;2023-07-20T03:38:21;4.68;;;2.78;;
48534;SDS011;34323;52.022;5.686;2023-07-20T03:43:19;4.03;;;2.50;;
48534;SDS011;34323;52.022;5.686;2023-07-20T03:45:47;3.45;;;2.42;;
48534;SDS011;34323;52.022;5.686;2023-07-20T03:48:16;3.63;;;2.60;;
48534;SDS011;34323;52.022;5.686;2023-07-20T03:50:44;3.90;;;2.50;;
48534;SDS011;34323;52.022;5.686;2023-07-20T03:53:10;3.85;;;2.25;;
48534;SDS011;34323;52.022;5.686;2023-07-20T03:55:36;5.00;;;3.20;;
48534;SDS011;34323;52.022;5.686;2023-07-20T03:58:02;2.92;;;2.47;;
48534;SDS011;34323;52.022;5.686;2023-07-20T04:00:29;3.17;;;2.35;;
48534;SDS011;34323;52.022;5.686;2023-07-20T04:02:54;4.57;;;3.00;;
48534;SDS011;34323;52.022;5.686;2023-07-20T04:05:20;5.10;;;2.63;;
48534;SDS011;34323;52.022;5.686;2023-07-20T04:07:45;4.05;;;2.80;;
48534;SDS011;34323;52.022;5.686;2023-07-20T04:10:12;3.78;;;2.70;;
48534;SDS011;34323;52.022;5.686;2023-07-20T04:12:37;5.30;;;2.53;;
48534;SDS011;34323;52.022;5.686;2023-07-20T04:15:03;3.38;;;2.20;;
48534;SDS011;34323;52.022;5.686;2023-07-20T04:17:29;3.45;;;2.55;;
48534;SDS011;34323;52.022;5.686;2023-07-20T04:19:54;3.03;;;2.30;;
48534;SDS011;34323;52.022;5.686;2023-07-20T04:22:20;3.38;;;2.30;;
48534;SDS011;34323;52.022;5.686;2023-07-20T04:24:46;4.65;;;2.67;;
48534;SDS011;34323;52.022;5.686;2023-07-20T04:27:12;3.42;;;2.35;;
48534;SDS011;34323;52.022;5.686;2023-07-20T04:29:37;3.72;;;2.67;;
48534;SDS011;34323;52.022;5.686;2023-07-20T04:32:03;3.90;;;2.10;;
48534;SDS011;34323;52.022;5.686;2023-07-20T04:34:29;2.85;;;2.17;;
48534;SDS011;34323;52.022;5.686;2023-07-20T04:36:55;3.30;;;2.38;;
48534;SDS011;34323;52.022;5.686;2023-07-20T04:39:20;3.72;;;2.60;;
48534;SDS011;34323;52.022;5.686;2023-07-20T04:41:46;3.38;;;2.25;;
48534;SDS011;34323;52.022;5.686;2023-07-20T04:44:12;3.00;;;2.13;;
48534;SDS011;34323;52.022;5.686;2023-07-20T04:46:38;4.10;;;2.03;;
48534;SDS011;34323;52.022;5.686;2023-07-20T04:49:05;3.25;;;2.33;;
48534;SDS011;34323;52.022;5.686;2023-07-20T04:51:30;2.15;;;1.77;;
48534;SDS011;34323;52.022;5.686;2023-07-20T04:53:56;2.55;;;2.05;;
48534;SDS011;34323;52.022;5.686;2023-07-20T04:56:22;2.97;;;2.33;;
48534;SDS011;34323;52.022;5.686;2023-07-20T04:58:48;2.47;;;1.80;;
48534;SDS011;34323;52.022;5.686;2023-07-20T05:01:14;2.92;;;2.10;;
48534;SDS011;34323;52.022;5.686;2023-07-20T05:03:39;3.30;;;2.45;;
48534;SDS011;34323;52.022;5.686;2023-07-20T05:06:05;4.05;;;2.20;;
48534;SDS011;34323;52.022;5.686;2023-07-20T05:08:30;6.25;;;2.20;;
48534;SDS011;34323;52.022;5.686;2023-07-20T05:10:56;4.30;;;2.67;;
48534;SDS011;34323;52.022;5.686;2023-07-20T05:13:21;3.67;;;2.45;;
48534;SDS011;34323;52.022;5.686;2023-07-20T05:15:51;5.25;;;2.70;;
48534;SDS011;34323;52.022;5.686;2023-07-20T05:18:17;5.03;;;2.25;;
48534;SDS011;34323;52.022;5.686;2023-07-20T05:20:45;7.47;;;3.03;;
48534;SDS011;34323;52.022;5.686;2023-07-20T05:23:16;4.05;;;2.60;;
48534;SDS011;34323;52.022;5.686;2023-07-20T05:25:43;4.15;;;2.72;;
48534;SDS011;34323;52.022;5.686;2023-07-20T05:28:08;3.38;;;2.80;;
48534;SDS011;34323;52.022;5.686;2023-07-20T05:30:34;6.28;;;3.67;;
48534;SDS011;34323;52.022;5.686;2023-07-20T05:33:00;4.70;;;3.25;;
48534;SDS011;34323;52.022;5.686;2023-07-20T05:35:25;4.75;;;3.40;;
48534;SDS011;34323;52.022;5.686;2023-07-20T05:37:51;6.28;;;4.82;;
48534;SDS011;34323;52.022;5.686;2023-07-20T05:40:17;10.82;;;4.28;;
48534;SDS011;34323;52.022;5.686;2023-07-20T05:42:44;7.22;;;4.82;;
48534;SDS011;34323;52.022;5.686;2023-07-20T05:45:11;9.85;;;4.18;;
48534;SDS011;34323;52.022;5.686;2023-07-20T05:47:37;6.38;;;4.50;;
48534;SDS011;34323;52.022;5.686;2023-07-20T05:50:03;5.93;;;4.28;;
48534;SDS011;34323;52.022;5.686;2023-07-20T05:52:28;4.93;;;3.80;;
48534;SDS011;34323;52.022;5.686;2023-07-20T05:54:54;8.07;;;4.10;;
48534;SDS011;34323;52.022;5.686;2023-07-20T05:57:20;7.05;;;4.38;;
48534;SDS011;34323;52.022;5.686;2023-07-20T05:59:46;6.13;;;4.50;;
48534;SDS011;34323;52.022;5.686;2023-07-20T06:02:11;5.40;;;4.35;;
48534;SDS011;34323;52.022;5.686;2023-07-20T06:04:38;5.43;;;4.20;;
48534;SDS011;34323;52.022;5.686;2023-07-20T06:07:04;4.80;;;3.13;;
48534;SDS011;34323;52.022;5.686;2023-07-20T06:09:30;4.43;;;2.80;;
48534;SDS011;34323;52.022;5.686;2023-07-20T06:11:56;4.90;;;2.60;;
48534;SDS011;34323;52.022;5.686;2023-07-20T06:14:21;3.08;;;2.28;;
48534;SDS011;34323;52.022;5.686;2023-07-20T06:16:47;3.65;;;2.38;;
48534;SDS011;34323;52.022;5.686;2023-07-20T06:19:13;5.97;;;2.75;;
48534;SDS011;34323;52.022;5.686;2023-07-20T06:21:38;3.70;;;2.20;;
48534;SDS011;34323;52.022;5.686;2023-07-20T06:24:04;2.78;;;1.67;;
48534;SDS011;34323;52.022;5.686;2023-07-20T06:26:30;3.58;;;1.42;;
48534;SDS011;34323;52.022;5.686;2023-07-20T06:28:56;1.45;;;1.30;;
48534;SDS011;34323;52.022;5.686;2023-07-20T06:31:22;5.88;;;2.00;;
48534;SDS011;34323;52.022;5.686;2023-07-20T06:33:47;2.20;;;1.40;;
48534;SDS011;34323;52.022;5.686;2023-07-20T06:36:13;2.17;;;1.58;;
48534;SDS011;34323;52.022;5.686;2023-07-20T06:38:39;3.25;;;1.30;;
48534;SDS011;34323;52.022;5.686;2023-07-20T06:41:04;1.20;;;1.00;;
48534;SDS011;34323;52.022;5.686;2023-07-20T06:43:30;1.30;;;1.00;;
48534;SDS011;34323;52.022;5.686;2023-07-20T06:45:55;3.10;;;0.98;;
48534;SDS011;34323;52.022;5.686;2023-07-20T06:48:21;1.88;;;1.13;;
48534;SDS011;34323;52.022;5.686;2023-07-20T06:50:47;1.40;;;1.20;;
48534;SDS011;34323;52.022;5.686;2023-07-20T06:53:12;1.25;;;1.00;;
48534;SDS011;34323;52.022;5.686;2023-07-20T06:55:38;3.88;;;1.90;;
48534;SDS011;34323;52.022;5.686;2023-07-20T06:58:04;4.90;;;1.48;;
48534;SDS011;34323;52.022;5.686;2023-07-20T07:00:30;3.47;;;2.00;;
48534;SDS011;34323;52.022;5.686;2023-07-20T07:02:55;1.98;;;1.55;;
48534;SDS011;34323;52.022;5.686;2023-07-20T07:05:22;3.05;;;1.67;;
48534;SDS011;34323;52.022;5.686;2023-07-20T07:07:48;4.55;;;1.33;;
48534;SDS011;34323;52.022;5.686;2023-07-20T07:10:14;4.20;;;1.30;;
48534;SDS011;34323;52.022;5.686;2023-07-20T07:12:39;4.75;;;2.53;;
48534;SDS011;34323;52.022;5.686;2023-07-20T07:15:06;4.40;;;1.52;;
48534;SDS011;34323;52.022;5.686;2023-07-20T07:17:32;3.35;;;1.50;;
48534;SDS011;34323;52.022;5.686;2023-07-20T07:19:58;2.88;;;1.77;;
48534;SDS011;34323;52.022;5.686;2023-07-20T07:22:23;2.65;;;1.58;;
48534;SDS011;34323;52.022;5.686;2023-07-20T07:24:49;3.50;;;1.73;;
48534;SDS011;34323;52.022;5.686;2023-07-20T07:27:14;4.63;;;2.03;;
48534;SDS011;34323;52.022;5.686;2023-07-20T07:29:43;6.55;;;2.33;;
48534;SDS011;34323;52.022;5.686;2023-07-20T07:32:12;3.97;;;1.98;;
48534;SDS011;34323;52.022;5.686;2023-07-20T07:34:37;2.55;;;1.38;;
48534;SDS011;34323;52.022;5.686;2023-07-20T07:37:04;3.67;;;1.70;;
48534;SDS011;34323;52.022;5.686;2023-07-20T07:39:30;1.52;;;1.30;;
48534;SDS011;34323;52.022;5.686;2023-07-20T07:41:56;3.63;;;1.75;;
48534;SDS011;34323;52.022;5.686;2023-07-20T07:44:22;3.17;;;1.70;;
48534;SDS011;34323;52.022;5.686;2023-07-20T07:46:48;1.85;;;1.30;;
48534;SDS011;34323;52.022;5.686;2023-07-20T07:49:14;2.72;;;1.30;;
48534;SDS011;34323;52.022;5.686;2023-07-20T07:51:40;5.00;;;1.42;;
48534;SDS011;34323;52.022;5.686;2023-07-20T07:54:06;6.45;;;2.15;;
48534;SDS011;34323;52.022;5.686;2023-07-20T07:56:31;2.63;;;1.20;;
48534;SDS011;34323;52.022;5.686;2023-07-20T07:58:57;2.00;;;1.02;;
48534;SDS011;34323;52.022;5.686;2023-07-20T08:01:22;2.22;;;1.30;;
48534;SDS011;34323;52.022;5.686;2023-07-20T08:03:48;2.30;;;1.30;;
48534;SDS011;34323;52.022;5.686;2023-07-20T08:06:14;5.15;;;1.30;;
48534;SDS011;34323;52.022;5.686;2023-07-20T08:08:40;2.33;;;1.33;;
48534;SDS011;34323;52.022;5.686;2023-07-20T08:11:06;2.60;;;1.13;;
48534;SDS011;34323;52.022;5.686;2023-07-20T08:13:31;1.90;;;0.80;;
48534;SDS011;34323;52.022;5.686;2023-07-20T08:15:57;7.00;;;0.93;;
48534;SDS011;34323;52.022;5.686;2023-07-20T08:18:23;1.58;;;0.90;;
48534;SDS011;34323;52.022;5.686;2023-07-20T08:20:49;2.65;;;1.33;;
48534;SDS011;34323;52.022;5.686;2023-07-20T08:23:15;2.05;;;0.80;;
48534;SDS011;34323;52.022;5.686;2023-07-20T08:25:41;2.80;;;1.27;;
48534;SDS011;34323;52.022;5.686;2023-07-20T08:28:11;0.90;;;0.70;;
48534;SDS011;34323;52.022;5.686;2023-07-20T08:30:42;3.00;;;1.08;;
48534;SDS011;34323;52.022;5.686;2023-07-20T08:33:16;1.63;;;1.02;;
48534;SDS011;34323;52.022;5.686;2023-07-20T08:35:45;3.70;;;0.90;;
48534;SDS011;34323;52.022;5.686;2023-07-20T08:38:11;1.15;;;0.88;;
48534;SDS011;34323;52.022;5.686;2023-07-20T08:40:44;0.93;;;0.60;;
48534;SDS011;34323;52.022;5.686;2023-07-20T08:43:11;0.80;;;0.70;;
48534;SDS011;34323;52.022;5.686;2023-07-20T08:45:38;2.15;;;0.90;;
48534;SDS011;34323;52.022;5.686;2023-07-20T08:48:06;1.27;;;1.00;;
48534;SDS011;34323;52.022;5.686;2023-07-20T08:50:33;2.67;;;1.00;;
48534;SDS011;34323;52.022;5.686;2023-07-20T08:53:00;2.50;;;0.80;;
48534;SDS011;34323;52.022;5.686;2023-07-20T08:55:26;1.70;;;1.00;;
48534;SDS011;34323;52.022;5.686;2023-07-20T08:57:54;1.63;;;0.82;;
48534;SDS011;34323;52.022;5.686;2023-07-20T09:00:20;0.90;;;0.65;;
48534;SDS011;34323;52.022;5.686;2023-07-20T09:02:48;1.90;;;0.98;;
48534;SDS011;34323;52.022;5.686;2023-07-20T09:05:15;1.10;;;0.70;;
48534;SDS011;34323;52.022;5.686;2023-07-20T09:07:42;1.58;;;0.75;;
48534;SDS011;34323;52.022;5.686;2023-07-20T09:10:07;1.25;;;0.63;;
48534;SDS011;34323;52.022;5.686;2023-07-20T09:12:37;3.20;;;0.68;;
48534;SDS011;34323;52.022;5.686;2023-07-20T09:15:04;0.93;;;0.70;;
48534;SDS011;34323;52.022;5.686;2023-07-20T09:17:31;1.48;;;0.63;;
48534;SDS011;34323;52.022;5.686;2023-07-20T09:19:56;1.30;;;0.90;;
48534;SDS011;34323;52.022;5.686;2023-07-20T09:22:22;3.53;;;1.00;;
48534;SDS011;34323;52.022;5.686;2023-07-20T09:24:55;1.42;;;1.00;;
48534;SDS011;34323;52.022;5.686;2023-07-20T09:27:21;1.95;;;0.85;;
48534;SDS011;34323;52.022;5.686;2023-07-20T09:29:47;2.67;;;1.40;;
48534;SDS011;34323;52.022;5.686;2023-07-20T09:32:14;1.40;;;0.98;;
48534;SDS011;34323;52.022;5.686;2023-07-20T09:34:47;3.55;;;1.08;;
48534;SDS011;34323;52.022;5.686;2023-07-20T09:37:14;2.42;;;1.10;;
48534;SDS011;34323;52.022;5.686;2023-07-20T09:39:46;1.47;;;1.17;;
48534;SDS011;34323;52.022;5.686;2023-07-20T09:42:11;4.75;;;1.20;;
48534;SDS011;34323;52.022;5.686;2023-07-20T09:44:38;5.00;;;1.60;;
48534;SDS011;34323;52.022;5.686;2023-07-20T09:47:04;2.40;;;1.20;;
48534;SDS011;34323;52.022;5.686;2023-07-20T09:49:30;2.78;;;1.08;;
48534;SDS011;34323;52.022;5.686;2023-07-20T09:51:59;2.13;;;1.10;;
48534;SDS011;34323;52.022;5.686;2023-07-20T09:54:27;1.80;;;1.15;;
48534;SDS011;34323;52.022;5.686;2023-07-20T09:56:54;1.88;;;1.25;;
48534;SDS011;34323;52.022;5.686;2023-07-20T09:59:21;3.97;;;1.00;;
48534;SDS011;34323;52.022;5.686;2023-07-20T10:01:47;3.30;;;1.00;;
48534;SDS011;34323;52.022;5.686;2023-07-20T10:04:14;1.08;;;0.82;;
48534;SDS011;34323;52.022;5.686;2023-07-20T10:06:43;2.20;;;0.85;;
48534;SDS011;34323;52.022;5.686;2023-07-20T10:09:14;1.48;;;0.90;;
48534;SDS011;34323;52.022;5.686;2023-07-20T10:11:43;1.23;;;0.75;;
48534;SDS011;34323;52.022;5.686;2023-07-20T10:14:12;1.75;;;0.65;;
48534;SDS011;34323;52.022;5.686;2023-07-20T10:16:43;4.35;;;0.90;;
48534;SDS011;34323;52.022;5.686;2023-07-20T10:19:17;3.67;;;0.52;;
48534;SDS011;34323;52.022;5.686;2023-07-20T10:21:57;2.28;;;0.70;;
48534;SDS011;34323;52.022;5.686;2023-07-20T10:24:28;1.67;;;1.00;;
48534;SDS011;34323;52.022;5.686;2023-07-20T10:26:55;1.58;;;0.95;;
48534;SDS011;34323;52.022;5.686;2023-07-20T10:29:21;4.50;;;0.70;;
48534;SDS011;34323;52.022;5.686;2023-07-20T10:31:48;3.17;;;1.20;;
48534;SDS011;34323;52.022;5.686;2023-07-20T10:34:14;2.00;;;1.00;;
48534;SDS011;34323;52.022;5.686;2023-07-20T10:36:46;1.40;;;0.85;;
48534;SDS011;34323;52.022;5.686;2023-07-20T10:39:25;3.08;;;1.00;;
48534;SDS011;34323;52.022;5.686;2023-07-20T10:42:01;3.10;;;0.65;;
48534;SDS011;34323;52.022;5.686;2023-07-20T10:44:33;0.90;;;0.60;;
48534;SDS011;34323;52.022;5.686;2023-07-20T10:47:02;1.52;;;0.68;;
48534;SDS011;34323;52.022;5.686;2023-07-20T10:49:30;1.98;;;1.05;;
48534;SDS011;34323;52.022;5.686;2023-07-20T10:51:59;1.60;;;0.85;;
48534;SDS011;34323;52.022;5.686;2023-07-20T10:56:51;1.67;;;0.50;;
48534;SDS011;34323;52.022;5.686;2023-07-20T11:01:48;1.45;;;0.70;;
48534;SDS011;34323;52.022;5.686;2023-07-20T11:04:16;1.27;;;0.60;;
48534;SDS011;34323;52.022;5.686;2023-07-20T11:06:44;1.38;;;0.70;;
48534;SDS011;34323;52.022;5.686;2023-07-20T11:09:11;1.52;;;0.63;;
48534;SDS011;34323;52.022;5.686;2023-07-20T11:11:41;1.10;;;0.80;;
48534;SDS011;34323;52.022;5.686;2023-07-20T11:14:29;1.15;;;0.63;;
48534;SDS011;34323;52.022;5.686;2023-07-20T11:16:56;0.98;;;0.80;;
48534;SDS011;34323;52.022;5.686;2023-07-20T11:19:37;2.20;;;0.93;;
48534;SDS011;34323;52.022;5.686;2023-07-20T11:22:04;2.15;;;0.60;;
48534;SDS011;34323;52.022;5.686;2023-07-20T11:24:37;4.63;;;0.70;;
48534;SDS011;34323;52.022;5.686;2023-07-20T11:27:04;0.40;;;0.40;;
48534;SDS011;34323;52.022;5.686;2023-07-20T11:29:30;1.35;;;0.60;;
48534;SDS011;34323;52.022;5.686;2023-07-20T11:31:56;1.83;;;0.90;;
48534;SDS011;34323;52.022;5.686;2023-07-20T11:34:21;0.90;;;0.47;;
48534;SDS011;34323;52.022;5.686;2023-07-20T11:36:48;1.20;;;0.52;;
48534;SDS011;34323;52.022;5.686;2023-07-20T11:39:16;1.88;;;0.50;;
48534;SDS011;34323;52.022;5.686;2023-07-20T11:41:47;0.55;;;0.40;;
48534;SDS011;34323;52.022;5.686;2023-07-20T11:44:15;1.58;;;0.50;;
48534;SDS011;34323;52.022;5.686;2023-07-20T11:46:42;1.02;;;0.45;;
48534;SDS011;34323;52.022;5.686;2023-07-20T11:49:09;1.65;;;0.40;;
48534;SDS011;34323;52.022;5.686;2023-07-20T11:51:35;0.75;;;0.60;;
48534;SDS011;34323;52.022;5.686;2023-07-20T11:54:02;1.50;;;0.80;;
48534;SDS011;34323;52.022;5.686;2023-07-20T11:56:29;1.15;;;0.75;;
48534;SDS011;34323;52.022;5.686;2023-07-20T11:58:55;2.95;;;0.70;;
48534;SDS011;34323;52.022;5.686;2023-07-20T12:01:26;0.80;;;0.70;;
48534;SDS011;34323;52.022;5.686;2023-07-20T12:04:00;4.20;;;0.73;;
48534;SDS011;34323;52.022;5.686;2023-07-20T12:06:29;1.13;;;0.60;;
48534;SDS011;34323;52.022;5.686;2023-07-20T12:08:59;1.40;;;1.05;;
48534;SDS011;34323;52.022;5.686;2023-07-20T12:13:57;0.57;;;0.40;;
48534;SDS011;34323;52.022;5.686;2023-07-20T12:16:26;1.88;;;0.60;;
48534;SDS011;34323;52.022;5.686;2023-07-20T12:18:59;2.42;;;0.60;;
48534;SDS011;34323;52.022;5.686;2023-07-20T12:21:29;0.90;;;0.43;;
48534;SDS011;34323;52.022;5.686;2023-07-20T12:23:56;0.40;;;0.40;;
48534;SDS011;34323;52.022;5.686;2023-07-20T12:26:23;0.45;;;0.30;;
48534;SDS011;34323;52.022;5.686;2023-07-20T12:28:50;2.15;;;0.73;;
48534;SDS011;34323;52.022;5.686;2023-07-20T12:31:16;0.65;;;0.30;;
48534;SDS011;34323;52.022;5.686;2023-07-20T12:33:41;1.60;;;0.50;;
48534;SDS011;34323;52.022;5.686;2023-07-20T12:36:08;1.00;;;0.80;;
48534;SDS011;34323;52.022;5.686;2023-07-20T12:38:34;1.60;;;0.50;;
48534;SDS011;34323;52.022;5.686;2023-07-20T12:41:02;0.85;;;0.32;;
48534;SDS011;34323;52.022;5.686;2023-07-20T12:43:28;0.60;;;0.60;;
48534;SDS011;34323;52.022;5.686;2023-07-20T12:45:55;1.48;;;0.63;;
48534;SDS011;34323;52.022;5.686;2023-07-20T12:48:21;0.80;;;0.50;;
48534;SDS011;34323;52.022;5.686;2023-07-20T12:50:47;0.43;;;0.40;;
48534;SDS011;34323;52.022;5.686;2023-07-20T12:53:12;4.22;;;0.70;;
48534;SDS011;34323;52.022;5.686;2023-07-20T12:55:38;0.57;;;0.47;;
48534;SDS011;34323;52.022;5.686;2023-07-20T12:58:04;2.33;;;0.40;;
48534;SDS011;34323;52.022;5.686;2023-07-20T13:00:30;1.13;;;0.45;;
48534;SDS011;34323;52.022;5.686;2023-07-20T13:02:56;3.42;;;0.50;;
48534;SDS011;34323;52.022;5.686;2023-07-20T13:05:22;0.40;;;0.40;;
48534;SDS011;34323;52.022;5.686;2023-07-20T13:07:48;2.40;;;0.50;;
48534;SDS011;34323;52.022;5.686;2023-07-20T13:10:14;1.48;;;0.60;;
48534;SDS011;34323;52.022;5.686;2023-07-20T13:12:39;1.02;;;0.60;;
48534;SDS011;34323;52.022;5.686;2023-07-20T13:15:06;0.70;;;0.38;;
48534;SDS011;34323;52.022;5.686;2023-07-20T13:17:33;1.33;;;0.63;;
48534;SDS011;34323;52.022;5.686;2023-07-20T13:20:00;2.20;;;0.55;;
48534;SDS011;34323;52.022;5.686;2023-07-20T13:22:25;4.25;;;0.73;;
48534;SDS011;34323;52.022;5.686;2023-07-20T13:24:52;1.00;;;0.60;;
48534;SDS011;34323;52.022;5.686;2023-07-20T13:27:17;0.80;;;0.55;;
48534;SDS011;34323;52.022;5.686;2023-07-20T13:29:44;1.30;;;0.73;;
48534;SDS011;34323;52.022;5.686;2023-07-20T13:32:12;1.88;;;0.68;;
48534;SDS011;34323;52.022;5.686;2023-07-20T13:34:40;2.63;;;0.63;;
48534;SDS011;34323;52.022;5.686;2023-07-20T13:37:05;1.13;;;0.60;;
48534;SDS011;34323;52.022;5.686;2023-07-20T13:39:31;1.48;;;0.82;;
48534;SDS011;34323;52.022;5.686;2023-07-20T13:41:57;0.77;;;0.68;;
48534;SDS011;34323;52.022;5.686;2023-07-20T13:44:22;2.45;;;1.00;;
48534;SDS011;34323;52.022;5.686;2023-07-20T13:46:48;0.85;;;0.50;;
48534;SDS011;34323;52.022;5.686;2023-07-20T13:49:14;2.78;;;0.88;;
48534;SDS011;34323;52.022;5.686;2023-07-20T13:51:43;1.60;;;0.57;;
48534;SDS011;34323;52.022;5.686;2023-07-20T13:54:09;2.70;;;0.52;;
48534;SDS011;34323;52.022;5.686;2023-07-20T13:56:35;2.30;;;0.93;;
48534;SDS011;34323;52.022;5.686;2023-07-20T13:59:00;1.20;;;0.60;;
48534;SDS011;34323;52.022;5.686;2023-07-20T14:01:26;1.02;;;0.50;;
48534;SDS011;34323;52.022;5.686;2023-07-20T14:03:53;0.82;;;0.40;;
48534;SDS011;34323;52.022;5.686;2023-07-20T14:06:19;2.00;;;0.60;;
48534;SDS011;34323;52.022;5.686;2023-07-20T14:08:45;0.65;;;0.40;;
48534;SDS011;34323;52.022;5.686;2023-07-20T14:11:12;1.65;;;0.73;;
48534;SDS011;34323;52.022;5.686;2023-07-20T14:13:38;4.35;;;0.90;;
48534;SDS011;34323;52.022;5.686;2023-07-20T14:16:04;3.92;;;0.68;;
48534;SDS011;34323;52.022;5.686;2023-07-20T14:18:30;0.57;;;0.50;;
48534;SDS011;34323;52.022;5.686;2023-07-20T14:20:55;1.33;;;0.60;;
48534;SDS011;34323;52.022;5.686;2023-07-20T14:23:21;1.38;;;0.50;;
48534;SDS011;34323;52.022;5.686;2023-07-20T14:25:47;2.58;;;0.50;;
48534;SDS011;34323;52.022;5.686;2023-07-20T14:28:13;2.00;;;0.55;;
48534;SDS011;34323;52.022;5.686;2023-07-20T14:30:38;1.25;;;0.63;;
48534;SDS011;34323;52.022;5.686;2023-07-20T14:33:05;3.17;;;1.08;;
48534;SDS011;34323;52.022;5.686;2023-07-20T14:35:30;2.10;;;0.95;;
48534;SDS011;34323;52.022;5.686;2023-07-20T14:37:56;1.25;;;0.90;;
48534;SDS011;34323;52.022;5.686;2023-07-20T14:40:21;1.08;;;0.80;;
48534;SDS011;34323;52.022;5.686;2023-07-20T14:42:47;1.85;;;0.70;;
48534;SDS011;34323;52.022;5.686;2023-07-20T14:45:12;1.38;;;0.60;;
48534;SDS011;34323;52.022;5.686;2023-07-20T14:47:38;3.33;;;0.70;;
48534;SDS011;34323;52.022;5.686;2023-07-20T14:50:05;4.22;;;1.23;;
48534;SDS011;34323;52.022;5.686;2023-07-20T14:52:31;3.33;;;0.93;;
48534;SDS011;34323;52.022;5.686;2023-07-20T14:54:57;1.95;;;0.88;;
48534;SDS011;34323;52.022;5.686;2023-07-20T14:57:22;3.08;;;0.90;;
48534;SDS011;34323;52.022;5.686;2023-07-20T14:59:51;0.60;;;0.60;;
48534;SDS011;34323;52.022;5.686;2023-07-20T15:02:17;3.20;;;0.90;;
48534;SDS011;34323;52.022;5.686;2023-07-20T15:04:50;2.15;;;1.00;;
48534;SDS011;34323;52.022;5.686;2023-07-20T15:07:17;1.75;;;0.75;;